Waldport, OR (97394)

01:03 AM PST am 24. Januar 2017 (GMT -0800)
Alsea Highlands | | Change Station

Höhe 200 ft 44.44 °N, 124.07 °W | Updated 1 minute ago

Heiter
Heiter
37.6 °F
gefühlte 38 °F
N
0.0
Wind Wechselnd Wind aus Ost-Nordost
Gusts 0.0 mph

Heute
Max. -- | schwach -- °F
--% Regenrisiko
Gestern
Max. -- | schwach -- °F
Precip. -- inch
Druck 30.03 inch
Sichtweite 10.0 Meilen
Wolken Heiter
Windchill 38 °F
Taupunkt 36 °F
Feuchtigkeit 94%
Regen 0.00 inch
Schneehöhe Nicht verfügbar..
7:42 AM 5:15 PM
Letztes Viertel, 13% visible
METAR KONP 240855Z AUTO 07003KT 10SM CLR 02/01 A3003 RMK AO2
Druck 30.03 inch
Sichtweite 10.0 Meilen
Wolken Heiter
Windchill 38 °F
Taupunkt 36 °F
Feuchtigkeit 94%
Regen 0.00 inch
Schneehöhe Nicht verfügbar..
7:42 AM 5:15 PM
Letztes Viertel, 13% visible
METAR KONP 240855Z AUTO 07003KT 10SM CLR 02/01 A3003 RMK AO2

Get Your Daily Forecast Email!

Thanks for signing up!

Be on the lookout for a verification email in your inbox.

You'll start receiving the daily forecast at 8 AM.

×

10-Day Weather Forecast

Almanac

Astronomie

Jan. 24, 2017 Aufgang Untergang
Genaue Zeit
Bürgerliche Dämmerung
Nautische Dämmerung
Astronomische Dämmerung
Mond
Länge des sichtbaren Lichts
Tageslänge
Tomorrow will be .
, % of the Moon is Illuminated

Heutige Rekorde

State Highs State Lows

Community

WunderPhotos

Upload Photos

1,962,540 Fotos hochgeladen!

WunderBlog® & News

Nearby

Luftqualität

  Luftqualität LQ Index Schadstoff
Not available.

Schneehöhe

Station Depth Höhe

Erdbebenaktivität

Stadt Distance Mag. Time & Date
Minimum magnitude displayed is 2.5.

küstennahe Wassertemperaturen

Ort Temperatur

Stations

Wetterstationen in der Umgebung

Stationsstandort Temp. Windchill Taupunkt Feuchtigkeit Wind Precip. Höhe Aktualisiert Art
                   

Watches & Warnings

Small Craft for Hazardous Seas Advisory
Issued: 20:31 PST Jan. 23, 2017 – National Weather Service

... Small Craft Advisory for hazardous seas remains in effect
until 4 am PST Tuesday...

* seas... 11 to 15 feet... decreasing below 10 feet late tonight.

Precautionary/preparedness actions...

A Small Craft Advisory for wind means that wind speeds of 21 to
33 knots are expected. Inexperienced mariners... especially those
operating smaller vessels should avoid navigating in these
conditions.

A Small Craft Advisory for hazardous seas means that waves are
expected to be hazardous to small craft. Mariners should avoid
shoaling areas. Long period swell can sharpen into large breaking
waves in shoaling areas. It is not unusual for waves to break
much farther from shoaling areas than is normally experienced.
Remember... breaking waves can easily capsize even larger vessels.




Http://www.Weather.Gov/Portland